sensor_id;sensor_type;location;lat;lon;timestamp;temperature;humidity
14000;DHT22;7075;53.574;10.054;2023-06-10T00:00:40;20.00;99.90
14000;DHT22;7075;53.574;10.054;2023-06-10T00:03:07;19.90;99.90
14000;DHT22;7075;53.574;10.054;2023-06-10T00:05:33;19.90;99.90
14000;DHT22;7075;53.574;10.054;2023-06-10T00:08:01;19.90;99.90
14000;DHT22;7075;53.574;10.054;2023-06-10T00:10:33;19.80;99.90
14000;DHT22;7075;53.574;10.054;2023-06-10T00:13:00;19.60;99.90
14000;DHT22;7075;53.574;10.054;2023-06-10T00:15:26;19.60;99.90
14000;DHT22;7075;53.574;10.054;2023-06-10T00:17:52;19.50;99.90
14000;DHT22;7075;53.574;10.054;2023-06-10T00:20:18;19.50;99.90
14000;DHT22;7075;53.574;10.054;2023-06-10T00:22:44;19.40;99.90
14000;DHT22;7075;53.574;10.054;2023-06-10T00:25:11;19.30;99.90
14000;DHT22;7075;53.574;10.054;2023-06-10T00:27:36;19.30;99.90
14000;DHT22;7075;53.574;10.054;2023-06-10T00:30:03;19.30;99.90
14000;DHT22;7075;53.574;10.054;2023-06-10T00:32:32;19.30;99.90
14000;DHT22;7075;53.574;10.054;2023-06-10T00:34:58;19.20;99.90
14000;DHT22;7075;53.574;10.054;2023-06-10T00:37:23;19.30;99.90
14000;DHT22;7075;53.574;10.054;2023-06-10T00:39:49;19.30;99.90
14000;DHT22;7075;53.574;10.054;2023-06-10T00:42:16;19.20;99.90
14000;DHT22;7075;53.574;10.054;2023-06-10T00:45:05;19.10;99.90
14000;DHT22;7075;53.574;10.054;2023-06-10T00:47:31;19.20;99.90
14000;DHT22;7075;53.574;10.054;2023-06-10T00:49:57;19.20;99.90
14000;DHT22;7075;53.574;10.054;2023-06-10T00:52:26;19.20;99.90
14000;DHT22;7075;53.574;10.054;2023-06-10T00:54:52;19.20;99.90
14000;DHT22;7075;53.574;10.054;2023-06-10T00:57:18;19.10;99.90
14000;DHT22;7075;53.574;10.054;2023-06-10T00:59:48;19.10;99.90
14000;DHT22;7075;53.574;10.054;2023-06-10T01:02:18;19.00;99.90
14000;DHT22;7075;53.574;10.054;2023-06-10T01:04:46;19.00;99.90
14000;DHT22;7075;53.574;10.054;2023-06-10T01:07:23;19.00;99.90
14000;DHT22;7075;53.574;10.054;2023-06-10T01:15:00;18.90;99.90
14000;DHT22;7075;53.574;10.054;2023-06-10T01:17:26;18.80;99.90
14000;DHT22;7075;53.574;10.054;2023-06-10T01:19:56;18.80;99.90
14000;DHT22;7075;53.574;10.054;2023-06-10T01:22:26;18.80;99.90
14000;DHT22;7075;53.574;10.054;2023-06-10T01:24:58;18.80;99.90
14000;DHT22;7075;53.574;10.054;2023-06-10T01:27:29;18.70;99.90
14000;DHT22;7075;53.574;10.054;2023-06-10T01:30:00;18.60;99.90
14000;DHT22;7075;53.574;10.054;2023-06-10T01:32:37;18.60;99.90
14000;DHT22;7075;53.574;10.054;2023-06-10T01:35:08;18.50;99.90
14000;DHT22;7075;53.574;10.054;2023-06-10T01:37:34;18.50;99.90
14000;DHT22;7075;53.574;10.054;2023-06-10T01:40:02;18.40;99.90
14000;DHT22;7075;53.574;10.054;2023-06-10T01:42:32;18.40;99.90
14000;DHT22;7075;53.574;10.054;2023-06-10T01:44:58;18.40;99.90
14000;DHT22;7075;53.574;10.054;2023-06-10T01:47:24;18.30;99.90
14000;DHT22;7075;53.574;10.054;2023-06-10T01:49:53;18.20;99.90
14000;DHT22;7075;53.574;10.054;2023-06-10T01:52:24;18.30;99.90
14000;DHT22;7075;53.574;10.054;2023-06-10T01:54:50;18.20;99.90
14000;DHT22;7075;53.574;10.054;2023-06-10T01:57:18;18.20;99.90
14000;DHT22;7075;53.574;10.054;2023-06-10T01:59:43;18.20;99.90
14000;DHT22;7075;53.574;10.054;2023-06-10T02:02:10;18.10;99.90
14000;DHT22;7075;53.574;10.054;2023-06-10T02:04:36;18.10;99.90
14000;DHT22;7075;53.574;10.054;2023-06-10T02:07:02;18.10;99.90
14000;DHT22;7075;53.574;10.054;2023-06-10T02:09:30;18.00;99.90
14000;DHT22;7075;53.574;10.054;2023-06-10T02:11:55;17.90;99.90
14000;DHT22;7075;53.574;10.054;2023-06-10T02:14:21;17.90;99.90
14000;DHT22;7075;53.574;10.054;2023-06-10T02:16:47;17.80;99.90
14000;DHT22;7075;53.574;10.054;2023-06-10T02:19:13;17.80;99.90
14000;DHT22;7075;53.574;10.054;2023-06-10T02:21:39;17.70;99.90
14000;DHT22;7075;53.574;10.054;2023-06-10T02:24:05;17.70;99.90
14000;DHT22;7075;53.574;10.054;2023-06-10T02:26:31;17.80;99.90
14000;DHT22;7075;53.574;10.054;2023-06-10T02:28:57;17.70;99.90
14000;DHT22;7075;53.574;10.054;2023-06-10T02:31:22;17.80;99.90
14000;DHT22;7075;53.574;10.054;2023-06-10T02:33:49;17.70;99.90
14000;DHT22;7075;53.574;10.054;2023-06-10T02:36:15;17.70;99.90
14000;DHT22;7075;53.574;10.054;2023-06-10T02:38:41;17.60;99.90
14000;DHT22;7075;53.574;10.054;2023-06-10T02:41:06;17.60;99.90
14000;DHT22;7075;53.574;10.054;2023-06-10T02:43:32;17.60;99.90
14000;DHT22;7075;53.574;10.054;2023-06-10T02:45:58;17.60;99.90
14000;DHT22;7075;53.574;10.054;2023-06-10T02:48:27;17.60;99.90
14000;DHT22;7075;53.574;10.054;2023-06-10T02:51:15;17.60;99.90
14000;DHT22;7075;53.574;10.054;2023-06-10T02:53:40;17.50;99.90
14000;DHT22;7075;53.574;10.054;2023-06-10T02:56:06;17.50;99.90
14000;DHT22;7075;53.574;10.054;2023-06-10T02:58:31;17.50;99.90
14000;DHT22;7075;53.574;10.054;2023-06-10T03:00:57;17.50;99.90
14000;DHT22;7075;53.574;10.054;2023-06-10T03:03:23;17.50;99.90
14000;DHT22;7075;53.574;10.054;2023-06-10T03:05:49;17.40;99.90
14000;DHT22;7075;53.574;10.054;2023-06-10T03:08:16;17.40;99.90
14000;DHT22;7075;53.574;10.054;2023-06-10T03:10:42;17.40;99.90
14000;DHT22;7075;53.574;10.054;2023-06-10T03:13:07;17.30;99.90
14000;DHT22;7075;53.574;10.054;2023-06-10T03:15:33;17.30;99.90
14000;DHT22;7075;53.574;10.054;2023-06-10T03:18:02;17.30;99.90
14000;DHT22;7075;53.574;10.054;2023-06-10T03:20:27;17.30;99.90
14000;DHT22;7075;53.574;10.054;2023-06-10T03:22:54;17.30;99.90
14000;DHT22;7075;53.574;10.054;2023-06-10T03:25:19;17.30;99.90
14000;DHT22;7075;53.574;10.054;2023-06-10T03:27:46;17.20;99.90
14000;DHT22;7075;53.574;10.054;2023-06-10T03:30:13;17.20;99.90
14000;DHT22;7075;53.574;10.054;2023-06-10T03:32:38;17.10;99.90
14000;DHT22;7075;53.574;10.054;2023-06-10T03:35:04;17.10;99.90
14000;DHT22;7075;53.574;10.054;2023-06-10T03:37:30;17.10;99.90
14000;DHT22;7075;53.574;10.054;2023-06-10T03:39:55;17.10;99.90
14000;DHT22;7075;53.574;10.054;2023-06-10T03:42:21;17.10;99.90
14000;DHT22;7075;53.574;10.054;2023-06-10T03:44:47;17.00;99.90
14000;DHT22;7075;53.574;10.054;2023-06-10T03:47:12;17.00;99.90
14000;DHT22;7075;53.574;10.054;2023-06-10T03:49:38;17.00;99.90
14000;DHT22;7075;53.574;10.054;2023-06-10T03:52:06;17.10;99.90
14000;DHT22;7075;53.574;10.054;2023-06-10T03:54:31;17.00;99.90
14000;DHT22;7075;53.574;10.054;2023-06-10T03:56:57;17.00;99.90
14000;DHT22;7075;53.574;10.054;2023-06-10T03:59:23;17.00;99.90
14000;DHT22;7075;53.574;10.054;2023-06-10T04:01:48;16.90;99.90
14000;DHT22;7075;53.574;10.054;2023-06-10T04:04:14;16.90;99.90
14000;DHT22;7075;53.574;10.054;2023-06-10T04:06:45;16.90;99.90
14000;DHT22;7075;53.574;10.054;2023-06-10T04:09:12;16.90;99.90
14000;DHT22;7075;53.574;10.054;2023-06-10T04:11:38;16.90;99.90
14000;DHT22;7075;53.574;10.054;2023-06-10T04:14:03;16.90;99.90
14000;DHT22;7075;53.574;10.054;2023-06-10T04:16:29;17.00;99.90
14000;DHT22;7075;53.574;10.054;2023-06-10T04:18:54;17.00;99.90
14000;DHT22;7075;53.574;10.054;2023-06-10T04:21:20;17.00;99.90
14000;DHT22;7075;53.574;10.054;2023-06-10T04:23:47;16.90;99.90
14000;DHT22;7075;53.574;10.054;2023-06-10T04:26:12;17.00;99.90
14000;DHT22;7075;53.574;10.054;2023-06-10T04:28:43;17.00;99.90
14000;DHT22;7075;53.574;10.054;2023-06-10T04:31:09;17.00;99.90
14000;DHT22;7075;53.574;10.054;2023-06-10T04:33:35;17.00;99.90
14000;DHT22;7075;53.574;10.054;2023-06-10T04:36:01;17.00;99.90
14000;DHT22;7075;53.574;10.054;2023-06-10T04:38:26;16.90;99.90
14000;DHT22;7075;53.574;10.054;2023-06-10T04:40:52;16.90;99.90
14000;DHT22;7075;53.574;10.054;2023-06-10T04:43:18;16.90;99.90
14000;DHT22;7075;53.574;10.054;2023-06-10T04:45:50;17.00;99.90
14000;DHT22;7075;53.574;10.054;2023-06-10T04:48:15;17.00;99.90
14000;DHT22;7075;53.574;10.054;2023-06-10T04:50:41;17.00;99.90
14000;DHT22;7075;53.574;10.054;2023-06-10T04:53:06;17.00;99.90
14000;DHT22;7075;53.574;10.054;2023-06-10T04:55:32;17.10;99.90
14000;DHT22;7075;53.574;10.054;2023-06-10T04:57:59;17.10;99.90
14000;DHT22;7075;53.574;10.054;2023-06-10T05:00:25;17.10;99.90
14000;DHT22;7075;53.574;10.054;2023-06-10T05:02:50;17.10;99.90
14000;DHT22;7075;53.574;10.054;2023-06-10T05:05:27;17.10;99.90
14000;DHT22;7075;53.574;10.054;2023-06-10T05:07:56;17.20;99.90
14000;DHT22;7075;53.574;10.054;2023-06-10T05:10:21;17.20;99.90
14000;DHT22;7075;53.574;10.054;2023-06-10T05:12:47;17.20;99.90
14000;DHT22;7075;53.574;10.054;2023-06-10T05:15:12;17.20;99.90
14000;DHT22;7075;53.574;10.054;2023-06-10T05:17:38;17.20;99.90
14000;DHT22;7075;53.574;10.054;2023-06-10T05:20:04;17.30;99.90
14000;DHT22;7075;53.574;10.054;2023-06-10T05:22:45;17.30;99.90
14000;DHT22;7075;53.574;10.054;2023-06-10T05:25:11;17.30;99.90
14000;DHT22;7075;53.574;10.054;2023-06-10T05:27:37;17.30;99.90
14000;DHT22;7075;53.574;10.054;2023-06-10T05:30:03;17.30;99.90
14000;DHT22;7075;53.574;10.054;2023-06-10T05:32:29;17.30;99.90
14000;DHT22;7075;53.574;10.054;2023-06-10T05:34:55;17.30;99.90
14000;DHT22;7075;53.574;10.054;2023-06-10T05:37:23;17.40;99.90
14000;DHT22;7075;53.574;10.054;2023-06-10T05:39:49;17.40;99.90
14000;DHT22;7075;53.574;10.054;2023-06-10T05:42:14;17.40;99.90
14000;DHT22;7075;53.574;10.054;2023-06-10T05:44:40;17.40;99.90
14000;DHT22;7075;53.574;10.054;2023-06-10T05:47:06;17.40;99.90
14000;DHT22;7075;53.574;10.054;2023-06-10T05:49:39;17.40;99.90
14000;DHT22;7075;53.574;10.054;2023-06-10T05:52:06;17.40;99.90
14000;DHT22;7075;53.574;10.054;2023-06-10T05:54:32;17.40;99.90
14000;DHT22;7075;53.574;10.054;2023-06-10T05:56:57;17.40;99.90
14000;DHT22;7075;53.574;10.054;2023-06-10T05:59:23;17.40;99.90
14000;DHT22;7075;53.574;10.054;2023-06-10T06:01:49;17.40;99.90
14000;DHT22;7075;53.574;10.054;2023-06-10T06:04:15;17.40;99.90
14000;DHT22;7075;53.574;10.054;2023-06-10T06:06:41;17.50;99.90
14000;DHT22;7075;53.574;10.054;2023-06-10T06:09:07;17.50;99.90
14000;DHT22;7075;53.574;10.054;2023-06-10T06:11:33;17.50;99.90
14000;DHT22;7075;53.574;10.054;2023-06-10T06:14:00;17.50;99.90
14000;DHT22;7075;53.574;10.054;2023-06-10T06:16:25;17.50;99.90
14000;DHT22;7075;53.574;10.054;2023-06-10T06:18:51;17.60;99.90
14000;DHT22;7075;53.574;10.054;2023-06-10T06:21:16;17.60;99.90
14000;DHT22;7075;53.574;10.054;2023-06-10T06:23:42;17.60;99.90
14000;DHT22;7075;53.574;10.054;2023-06-10T06:26:07;17.60;99.90
14000;DHT22;7075;53.574;10.054;2023-06-10T06:28:33;17.60;99.90
14000;DHT22;7075;53.574;10.054;2023-06-10T06:30:59;17.60;99.90
14000;DHT22;7075;53.574;10.054;2023-06-10T06:33:28;17.70;99.90
14000;DHT22;7075;53.574;10.054;2023-06-10T06:35:53;17.70;99.90
14000;DHT22;7075;53.574;10.054;2023-06-10T06:38:19;17.70;99.90
14000;DHT22;7075;53.574;10.054;2023-06-10T06:40:44;17.70;99.90
14000;DHT22;7075;53.574;10.054;2023-06-10T06:43:10;17.70;99.90
14000;DHT22;7075;53.574;10.054;2023-06-10T06:45:35;17.80;99.90
14000;DHT22;7075;53.574;10.054;2023-06-10T06:48:01;17.80;99.90
14000;DHT22;7075;53.574;10.054;2023-06-10T06:50:27;17.80;99.90
14000;DHT22;7075;53.574;10.054;2023-06-10T06:52:56;17.80;99.90
14000;DHT22;7075;53.574;10.054;2023-06-10T06:55:21;17.80;99.90
14000;DHT22;7075;53.574;10.054;2023-06-10T06:57:47;17.80;99.90
14000;DHT22;7075;53.574;10.054;2023-06-10T07:00:13;17.90;99.90
14000;DHT22;7075;53.574;10.054;2023-06-10T07:02:38;17.90;99.90
14000;DHT22;7075;53.574;10.054;2023-06-10T07:05:05;17.90;99.90
14000;DHT22;7075;53.574;10.054;2023-06-10T07:07:31;17.90;99.90
14000;DHT22;7075;53.574;10.054;2023-06-10T07:09:57;17.90;99.90
14000;DHT22;7075;53.574;10.054;2023-06-10T07:12:24;18.00;99.90
14000;DHT22;7075;53.574;10.054;2023-06-10T07:14:50;18.00;99.90
14000;DHT22;7075;53.574;10.054;2023-06-10T07:17:17;18.00;99.90
14000;DHT22;7075;53.574;10.054;2023-06-10T07:19:43;18.00;99.90
14000;DHT22;7075;53.574;10.054;2023-06-10T07:22:09;18.00;99.90
14000;DHT22;7075;53.574;10.054;2023-06-10T07:24:34;18.00;99.90
14000;DHT22;7075;53.574;10.054;2023-06-10T07:27:00;18.10;99.90
14000;DHT22;7075;53.574;10.054;2023-06-10T07:29:25;18.10;99.90
14000;DHT22;7075;53.574;10.054;2023-06-10T07:31:51;18.10;99.90
14000;DHT22;7075;53.574;10.054;2023-06-10T07:34:16;18.10;99.90
14000;DHT22;7075;53.574;10.054;2023-06-10T07:36:42;18.20;99.90
14000;DHT22;7075;53.574;10.054;2023-06-10T07:39:08;18.20;99.90
14000;DHT22;7075;53.574;10.054;2023-06-10T07:41:37;18.20;99.90
14000;DHT22;7075;53.574;10.054;2023-06-10T07:44:06;18.30;99.90
14000;DHT22;7075;53.574;10.054;2023-06-10T07:46:32;18.30;99.90
14000;DHT22;7075;53.574;10.054;2023-06-10T07:48:57;18.30;99.90
14000;DHT22;7075;53.574;10.054;2023-06-10T07:51:23;18.30;99.90
14000;DHT22;7075;53.574;10.054;2023-06-10T07:53:49;18.40;99.90
14000;DHT22;7075;53.574;10.054;2023-06-10T07:56:14;18.40;99.90
14000;DHT22;7075;53.574;10.054;2023-06-10T07:58:40;18.40;99.90
14000;DHT22;7075;53.574;10.054;2023-06-10T08:01:06;18.50;99.90
14000;DHT22;7075;53.574;10.054;2023-06-10T08:03:32;18.50;99.90
14000;DHT22;7075;53.574;10.054;2023-06-10T08:05:58;18.50;99.90
14000;DHT22;7075;53.574;10.054;2023-06-10T08:08:23;18.50;99.90
14000;DHT22;7075;53.574;10.054;2023-06-10T08:10:49;18.60;99.90
14000;DHT22;7075;53.574;10.054;2023-06-10T08:13:15;18.60;99.90
14000;DHT22;7075;53.574;10.054;2023-06-10T08:15:41;18.60;99.90
14000;DHT22;7075;53.574;10.054;2023-06-10T08:18:06;18.70;99.90
14000;DHT22;7075;53.574;10.054;2023-06-10T08:20:32;18.70;99.90
14000;DHT22;7075;53.574;10.054;2023-06-10T08:22:58;18.70;99.90
14000;DHT22;7075;53.574;10.054;2023-06-10T08:25:23;18.70;99.90
14000;DHT22;7075;53.574;10.054;2023-06-10T08:27:49;18.80;99.90
14000;DHT22;7075;53.574;10.054;2023-06-10T08:30:16;18.80;99.90
14000;DHT22;7075;53.574;10.054;2023-06-10T08:32:41;18.80;99.90
14000;DHT22;7075;53.574;10.054;2023-06-10T08:35:09;18.90;99.90
14000;DHT22;7075;53.574;10.054;2023-06-10T08:37:36;18.90;99.90
14000;DHT22;7075;53.574;10.054;2023-06-10T08:40:05;19.00;99.90
14000;DHT22;7075;53.574;10.054;2023-06-10T08:42:45;19.00;99.90
14000;DHT22;7075;53.574;10.054;2023-06-10T08:45:16;19.10;99.90
14000;DHT22;7075;53.574;10.054;2023-06-10T08:47:48;19.10;99.90
14000;DHT22;7075;53.574;10.054;2023-06-10T08:50:19;19.10;99.90
14000;DHT22;7075;53.574;10.054;2023-06-10T08:52:48;19.10;99.90
14000;DHT22;7075;53.574;10.054;2023-06-10T08:55:18;19.20;99.90
14000;DHT22;7075;53.574;10.054;2023-06-10T08:57:48;19.20;99.90
14000;DHT22;7075;53.574;10.054;2023-06-10T09:00:16;19.20;99.90
14000;DHT22;7075;53.574;10.054;2023-06-10T09:02:43;19.30;99.90
14000;DHT22;7075;53.574;10.054;2023-06-10T09:05:09;19.30;99.90
14000;DHT22;7075;53.574;10.054;2023-06-10T09:07:36;19.30;99.90
14000;DHT22;7075;53.574;10.054;2023-06-10T09:10:03;19.40;99.90
14000;DHT22;7075;53.574;10.054;2023-06-10T09:12:30;19.40;99.90
14000;DHT22;7075;53.574;10.054;2023-06-10T09:14:56;19.50;99.90
14000;DHT22;7075;53.574;10.054;2023-06-10T09:17:22;19.50;99.90
14000;DHT22;7075;53.574;10.054;2023-06-10T09:19:48;19.60;99.90
14000;DHT22;7075;53.574;10.054;2023-06-10T09:22:14;19.60;99.90
14000;DHT22;7075;53.574;10.054;2023-06-10T09:24:40;19.60;99.90
14000;DHT22;7075;53.574;10.054;2023-06-10T09:27:07;19.70;99.90
14000;DHT22;7075;53.574;10.054;2023-06-10T09:29:56;19.70;99.90
14000;DHT22;7075;53.574;10.054;2023-06-10T09:32:24;19.80;99.90
14000;DHT22;7075;53.574;10.054;2023-06-10T09:34:50;19.90;99.90
14000;DHT22;7075;53.574;10.054;2023-06-10T09:37:22;19.90;99.90
14000;DHT22;7075;53.574;10.054;2023-06-10T09:40:07;19.90;99.90
14000;DHT22;7075;53.574;10.054;2023-06-10T09:42:34;20.00;99.90
14000;DHT22;7075;53.574;10.054;2023-06-10T09:45:02;20.00;99.90
14000;DHT22;7075;53.574;10.054;2023-06-10T09:47:28;20.00;99.90
14000;DHT22;7075;53.574;10.054;2023-06-10T09:49:55;20.10;99.90
14000;DHT22;7075;53.574;10.054;2023-06-10T09:52:25;20.10;99.90
14000;DHT22;7075;53.574;10.054;2023-06-10T09:54:52;20.20;99.90
14000;DHT22;7075;53.574;10.054;2023-06-10T09:57:19;20.30;99.90
14000;DHT22;7075;53.574;10.054;2023-06-10T09:59:56;20.30;99.90
14000;DHT22;7075;53.574;10.054;2023-06-10T10:02:22;20.30;99.90
14000;DHT22;7075;53.574;10.054;2023-06-10T10:04:48;20.40;99.90
14000;DHT22;7075;53.574;10.054;2023-06-10T10:07:15;20.40;99.90
14000;DHT22;7075;53.574;10.054;2023-06-10T10:09:42;20.50;99.90
14000;DHT22;7075;53.574;10.054;2023-06-10T10:12:12;20.50;99.90
14000;DHT22;7075;53.574;10.054;2023-06-10T10:14:39;20.50;99.90
14000;DHT22;7075;53.574;10.054;2023-06-10T10:17:10;20.60;99.90
14000;DHT22;7075;53.574;10.054;2023-06-10T10:19:45;20.60;99.90
14000;DHT22;7075;53.574;10.054;2023-06-10T10:22:18;20.70;99.90
14000;DHT22;7075;53.574;10.054;2023-06-10T10:24:55;20.70;99.90
14000;DHT22;7075;53.574;10.054;2023-06-10T10:27:27;20.80;99.90
14000;DHT22;7075;53.574;10.054;2023-06-10T10:29:54;20.80;99.90
14000;DHT22;7075;53.574;10.054;2023-06-10T10:32:27;20.90;99.90
14000;DHT22;7075;53.574;10.054;2023-06-10T10:35:17;21.00;99.90
14000;DHT22;7075;53.574;10.054;2023-06-10T10:37:46;21.00;99.90
14000;DHT22;7075;53.574;10.054;2023-06-10T10:40:12;21.10;99.90
14000;DHT22;7075;53.574;10.054;2023-06-10T10:42:39;21.10;99.90
14000;DHT22;7075;53.574;10.054;2023-06-10T10:45:06;21.20;99.90
14000;DHT22;7075;53.574;10.054;2023-06-10T10:47:33;21.20;99.90
14000;DHT22;7075;53.574;10.054;2023-06-10T10:50:00;21.30;99.90
14000;DHT22;7075;53.574;10.054;2023-06-10T10:52:56;21.30;99.90
14000;DHT22;7075;53.574;10.054;2023-06-10T10:55:26;21.40;99.90
14000;DHT22;7075;53.574;10.054;2023-06-10T10:58:08;21.40;99.90
14000;DHT22;7075;53.574;10.054;2023-06-10T11:00:36;21.40;99.90
14000;DHT22;7075;53.574;10.054;2023-06-10T11:03:07;21.60;99.90
14000;DHT22;7075;53.574;10.054;2023-06-10T11:05:43;21.60;99.90
14000;DHT22;7075;53.574;10.054;2023-06-10T11:08:45;21.60;99.90
14000;DHT22;7075;53.574;10.054;2023-06-10T11:11:24;21.70;99.90
14000;DHT22;7075;53.574;10.054;2023-06-10T11:16:28;21.80;99.90
14000;DHT22;7075;53.574;10.054;2023-06-10T11:18:55;21.80;99.90
14000;DHT22;7075;53.574;10.054;2023-06-10T11:21:21;21.90;99.90
14000;DHT22;7075;53.574;10.054;2023-06-10T11:23:48;21.90;99.90
14000;DHT22;7075;53.574;10.054;2023-06-10T11:31:29;22.10;99.90
14000;DHT22;7075;53.574;10.054;2023-06-10T11:33:56;22.20;99.90
14000;DHT22;7075;53.574;10.054;2023-06-10T11:36:26;22.20;99.90
14000;DHT22;7075;53.574;10.054;2023-06-10T11:39:04;22.30;99.90
14000;DHT22;7075;53.574;10.054;2023-06-10T11:41:30;22.40;99.90
14000;DHT22;7075;53.574;10.054;2023-06-10T11:44:15;22.50;99.90
14000;DHT22;7075;53.574;10.054;2023-06-10T11:46:41;22.60;99.90
14000;DHT22;7075;53.574;10.054;2023-06-10T11:49:12;22.80;99.90
14000;DHT22;7075;53.574;10.054;2023-06-10T11:51:38;22.90;99.90
14000;DHT22;7075;53.574;10.054;2023-06-10T11:54:06;23.00;99.90
14000;DHT22;7075;53.574;10.054;2023-06-10T11:56:33;23.10;99.90
14000;DHT22;7075;53.574;10.054;2023-06-10T11:59:04;23.30;99.90
14000;DHT22;7075;53.574;10.054;2023-06-10T12:01:33;23.40;99.90
14000;DHT22;7075;53.574;10.054;2023-06-10T12:04:18;23.50;99.90
14000;DHT22;7075;53.574;10.054;2023-06-10T12:06:48;23.60;99.90
14000;DHT22;7075;53.574;10.054;2023-06-10T12:09:23;23.70;99.90
14000;DHT22;7075;53.574;10.054;2023-06-10T12:12:00;23.90;99.90
14000;DHT22;7075;53.574;10.054;2023-06-10T12:17:21;24.20;99.90
14000;DHT22;7075;53.574;10.054;2023-06-10T12:19:48;24.20;99.90
14000;DHT22;7075;53.574;10.054;2023-06-10T12:22:14;24.30;99.90
14000;DHT22;7075;53.574;10.054;2023-06-10T12:27:25;24.60;99.90
14000;DHT22;7075;53.574;10.054;2023-06-10T12:29:58;24.70;99.90
14000;DHT22;7075;53.574;10.054;2023-06-10T12:32:42;24.80;99.90
14000;DHT22;7075;53.574;10.054;2023-06-10T12:35:10;24.90;99.90
14000;DHT22;7075;53.574;10.054;2023-06-10T12:37:38;25.00;99.90
14000;DHT22;7075;53.574;10.054;2023-06-10T12:40:05;25.10;99.90
14000;DHT22;7075;53.574;10.054;2023-06-10T12:42:33;25.30;99.90
14000;DHT22;7075;53.574;10.054;2023-06-10T12:45:01;25.40;99.90
14000;DHT22;7075;53.574;10.054;2023-06-10T12:47:35;25.50;99.90
14000;DHT22;7075;53.574;10.054;2023-06-10T12:50:02;25.60;99.90
14000;DHT22;7075;53.574;10.054;2023-06-10T12:52:30;25.80;99.90
14000;DHT22;7075;53.574;10.054;2023-06-10T12:54:55;25.90;99.90
14000;DHT22;7075;53.574;10.054;2023-06-10T12:57:22;25.90;99.90
14000;DHT22;7075;53.574;10.054;2023-06-10T12:59:49;26.00;99.90
14000;DHT22;7075;53.574;10.054;2023-06-10T13:02:20;26.10;99.90
14000;DHT22;7075;53.574;10.054;2023-06-10T13:04:46;26.30;99.90
14000;DHT22;7075;53.574;10.054;2023-06-10T13:07:12;26.40;99.90
14000;DHT22;7075;53.574;10.054;2023-06-10T13:09:38;26.50;99.90
14000;DHT22;7075;53.574;10.054;2023-06-10T13:12:07;26.60;99.90
14000;DHT22;7075;53.574;10.054;2023-06-10T13:14:34;26.80;99.90
14000;DHT22;7075;53.574;10.054;2023-06-10T13:16:59;26.90;99.90
14000;DHT22;7075;53.574;10.054;2023-06-10T13:19:26;27.00;99.90
14000;DHT22;7075;53.574;10.054;2023-06-10T13:21:52;27.10;99.90
14000;DHT22;7075;53.574;10.054;2023-06-10T13:24:18;27.20;99.90
14000;DHT22;7075;53.574;10.054;2023-06-10T13:26:43;27.20;99.90
14000;DHT22;7075;53.574;10.054;2023-06-10T13:29:10;27.30;99.90
14000;DHT22;7075;53.574;10.054;2023-06-10T13:31:40;27.40;99.90
14000;DHT22;7075;53.574;10.054;2023-06-10T13:34:05;27.60;99.90
14000;DHT22;7075;53.574;10.054;2023-06-10T13:36:31;27.70;99.90
14000;DHT22;7075;53.574;10.054;2023-06-10T13:38:57;27.90;99.90
14000;DHT22;7075;53.574;10.054;2023-06-10T13:41:24;28.00;99.90
14000;DHT22;7075;53.574;10.054;2023-06-10T13:43:51;28.10;99.90
14000;DHT22;7075;53.574;10.054;2023-06-10T13:46:17;28.30;99.90
14000;DHT22;7075;53.574;10.054;2023-06-10T13:49:03;28.40;99.90
14000;DHT22;7075;53.574;10.054;2023-06-10T13:51:28;28.50;99.90
14000;DHT22;7075;53.574;10.054;2023-06-10T13:53:54;28.60;99.90
14000;DHT22;7075;53.574;10.054;2023-06-10T13:56:19;28.70;99.90
14000;DHT22;7075;53.574;10.054;2023-06-10T13:58:45;28.90;99.90
14000;DHT22;7075;53.574;10.054;2023-06-10T14:01:10;29.00;99.90
14000;DHT22;7075;53.574;10.054;2023-06-10T14:03:36;29.00;99.90
14000;DHT22;7075;53.574;10.054;2023-06-10T14:06:05;29.20;99.90
14000;DHT22;7075;53.574;10.054;2023-06-10T14:08:33;29.20;99.90
14000;DHT22;7075;53.574;10.054;2023-06-10T14:11:00;29.40;99.90
14000;DHT22;7075;53.574;10.054;2023-06-10T14:13:25;29.50;99.90
14000;DHT22;7075;53.574;10.054;2023-06-10T14:15:55;29.60;99.90
14000;DHT22;7075;53.574;10.054;2023-06-10T14:18:20;29.70;99.90
14000;DHT22;7075;53.574;10.054;2023-06-10T14:20:46;29.80;99.90
14000;DHT22;7075;53.574;10.054;2023-06-10T14:23:11;29.90;99.90
14000;DHT22;7075;53.574;10.054;2023-06-10T14:25:37;29.90;99.90
14000;DHT22;7075;53.574;10.054;2023-06-10T14:28:03;30.00;99.90
14000;DHT22;7075;53.574;10.054;2023-06-10T14:30:28;30.00;99.90
14000;DHT22;7075;53.574;10.054;2023-06-10T14:32:54;30.10;99.90
14000;DHT22;7075;53.574;10.054;2023-06-10T14:35:21;30.20;99.90
14000;DHT22;7075;53.574;10.054;2023-06-10T14:37:46;30.30;99.90
14000;DHT22;7075;53.574;10.054;2023-06-10T14:40:12;30.50;99.90
14000;DHT22;7075;53.574;10.054;2023-06-10T14:42:38;30.50;99.90
14000;DHT22;7075;53.574;10.054;2023-06-10T14:45:06;30.50;99.90
14000;DHT22;7075;53.574;10.054;2023-06-10T14:47:32;30.50;99.90
14000;DHT22;7075;53.574;10.054;2023-06-10T14:49:59;30.70;99.90
14000;DHT22;7075;53.574;10.054;2023-06-10T14:52:26;30.80;99.90
14000;DHT22;7075;53.574;10.054;2023-06-10T14:54:52;30.90;99.90
14000;DHT22;7075;53.574;10.054;2023-06-10T14:57:17;31.00;99.90
14000;DHT22;7075;53.574;10.054;2023-06-10T14:59:45;31.00;99.90
14000;DHT22;7075;53.574;10.054;2023-06-10T15:02:10;31.10;99.90
14000;DHT22;7075;53.574;10.054;2023-06-10T15:04:37;31.20;99.90
14000;DHT22;7075;53.574;10.054;2023-06-10T15:07:07;31.20;99.90
14000;DHT22;7075;53.574;10.054;2023-06-10T15:09:39;31.20;99.90
14000;DHT22;7075;53.574;10.054;2023-06-10T15:12:05;31.20;99.90
14000;DHT22;7075;53.574;10.054;2023-06-10T15:14:31;31.30;99.90
14000;DHT22;7075;53.574;10.054;2023-06-10T15:16:58;31.30;99.90
14000;DHT22;7075;53.574;10.054;2023-06-10T15:19:25;31.30;99.90
14000;DHT22;7075;53.574;10.054;2023-06-10T15:21:51;31.40;99.90
14000;DHT22;7075;53.574;10.054;2023-06-10T15:24:17;31.30;99.90
14000;DHT22;7075;53.574;10.054;2023-06-10T15:26:43;31.30;99.90
14000;DHT22;7075;53.574;10.054;2023-06-10T15:29:08;31.50;99.90
14000;DHT22;7075;53.574;10.054;2023-06-10T15:31:34;31.50;99.90
14000;DHT22;7075;53.574;10.054;2023-06-10T15:34:00;31.60;99.90
14000;DHT22;7075;53.574;10.054;2023-06-10T15:36:27;31.60;99.90
14000;DHT22;7075;53.574;10.054;2023-06-10T15:39:09;31.70;99.90
14000;DHT22;7075;53.574;10.054;2023-06-10T15:41:35;31.80;99.90
14000;DHT22;7075;53.574;10.054;2023-06-10T15:44:02;31.80;99.90
14000;DHT22;7075;53.574;10.054;2023-06-10T15:46:29;31.90;99.90
14000;DHT22;7075;53.574;10.054;2023-06-10T15:48:55;31.80;99.90
14000;DHT22;7075;53.574;10.054;2023-06-10T15:51:25;31.90;99.90